Time;durP1;ratioP1;P1;durP2;ratioP2;P2;SDS_P1;SDS_P2;PMS_P1;PMS_P2;Temp;Humidity;BMP_temperature;BMP_pressure;BME280_temperature;BME280_humidity;BME280_pressure;Samples;Min_cycle;Max_cycle;Signal;HPM_P1;HPM_P2
2021/10/06 00:00:52;;;;;;;;;1.33;1.00;;;;;15.45;58.01;101004.94;2092392;28;47292;-49
2021/10/06 00:01:52;;;;;;;;;1.67;0.00;;;;;15.45;57.80;101012.94;2083023;28;47829;-51
2021/10/06 00:02:53;;;;;;;;;0.67;0.67;;;;;15.46;58.13;101019.16;2083314;28;47119;-53
2021/10/06 00:03:53;;;;;;;;;0.00;0.00;;;;;15.46;57.78;101006.66;2091969;28;48399;-48
2021/10/06 00:04:54;;;;;;;;;1.67;0.67;;;;;15.47;57.78;101013.75;2091473;28;48197;-49
2021/10/06 00:05:54;;;;;;;;;1.00;1.00;;;;;15.47;57.70;101013.75;2091718;28;45347;-50
2021/10/06 00:06:55;;;;;;;;;0.33;0.33;;;;;15.46;58.25;101020.03;2092100;28;47445;-51
2021/10/06 00:07:55;;;;;;;;;1.67;0.67;;;;;15.46;58.17;101017.38;2092089;28;48401;-51
2021/10/06 00:08:56;;;;;;;;;0.33;0.33;;;;;15.45;57.64;101014.75;2092248;28;46683;-48
2021/10/06 00:09:56;;;;;;;;;1.67;1.00;;;;;15.44;58.09;101018.38;2092137;28;48147;-47
2021/10/06 00:10:57;;;;;;;;;1.00;1.00;;;;;15.43;58.24;101022.84;2092123;28;48359;-48
2021/10/06 00:11:57;;;;;;;;;1.33;1.33;;;;;15.43;57.65;101028.19;2091915;28;48193;-49
2021/10/06 00:12:58;;;;;;;;;1.67;0.67;;;;;15.43;57.94;101027.31;2092195;28;47259;-47
2021/10/06 00:13:58;;;;;;;;;0.67;0.67;;;;;15.41;58.01;101023.84;2092146;28;47281;-48
2021/10/06 00:14:59;;;;;;;;;1.00;0.00;;;;;15.40;57.76;101020.28;2092182;28;46998;-48
2021/10/06 00:16:00;;;;;;;;;1.00;0.67;;;;;15.38;58.12;101024.81;2092081;28;46822;-48
2021/10/06 00:17:01;;;;;;;;;0.00;0.00;;;;;15.37;57.68;101030.19;2092094;28;47304;-47
2021/10/06 00:18:02;;;;;;;;;0.67;0.00;;;;;15.36;58.29;101025.78;2091412;28;47141;-47
2021/10/06 00:19:03;;;;;;;;;0.00;0.00;;;;;15.36;57.99;101028.47;2084031;28;47080;-49
2021/10/06 00:20:04;;;;;;;;;1.75;1.25;;;;;15.37;57.82;101036.41;2089964;28;47172;-49
2021/10/06 00:21:06;;;;;;;;;1.75;0.00;;;;;15.36;57.84;101036.47;2091830;28;48643;-47
2021/10/06 00:22:06;;;;;;;;;2.00;0.00;;;;;15.35;58.21;101038.28;2091546;28;47064;-46
2021/10/06 00:23:07;;;;;;;;;2.67;1.33;;;;;15.34;58.14;101039.22;2091204;28;47074;-46
2021/10/06 00:24:08;;;;;;;;;1.75;0.75;;;;;15.34;58.12;101035.66;2092271;28;46655;-47
2021/10/06 00:25:08;;;;;;;;;0.67;0.67;;;;;15.34;57.88;101046.38;2091805;28;47384;-46
2021/10/06 00:26:09;;;;;;;;;1.00;0.00;;;;;15.33;57.94;101048.16;2092062;28;48101;-48
2021/10/06 00:27:09;;;;;;;;;3.33;1.67;;;;;15.33;58.05;101045.50;2091680;28;47343;-49
2021/10/06 00:28:10;;;;;;;;;1.33;0.00;;;;;15.34;58.42;101041.00;2092166;28;46294;-49
2021/10/06 00:29:10;;;;;;;;;2.67;2.00;;;;;15.35;57.84;101050.78;2092002;28;45310;-48
2021/10/06 00:30:11;;;;;;;;;0.67;0.67;;;;;15.35;58.09;101043.63;2091574;28;47016;-47
2021/10/06 00:31:12;;;;;;;;;1.00;1.00;;;;;15.35;57.73;101051.66;2091189;28;47295;-50
2021/10/06 00:32:12;;;;;;;;;2.00;2.00;;;;;15.36;58.02;101036.47;2092262;28;47147;-49
2021/10/06 00:33:13;;;;;;;;;0.00;0.00;;;;;15.36;58.26;101047.19;2091860;28;47269;-50
2021/10/06 00:34:13;;;;;;;;;1.67;0.67;;;;;15.36;58.01;101045.38;2092272;28;45945;-48
2021/10/06 00:35:14;;;;;;;;;0.67;0.67;;;;;15.36;58.15;101042.69;2091977;28;48479;-51
2021/10/06 00:36:14;;;;;;;;;0.00;0.00;;;;;15.36;58.51;101063.22;2091324;28;47715;-50
2021/10/06 00:37:15;;;;;;;;;0.67;0.67;;;;;15.36;58.34;101047.19;2091422;28;47249;-49
2021/10/06 00:38:16;;;;;;;;;1.33;1.00;;;;;15.36;57.90;101056.06;2091843;28;48170;-49
2021/10/06 00:39:16;;;;;;;;;0.33;0.33;;;;;15.36;58.38;101056.06;2091920;28;47090;-51
2021/10/06 00:40:17;;;;;;;;;1.67;0.67;;;;;15.36;58.29;101066.78;2091966;28;46246;-49
2021/10/06 00:41:17;;;;;;;;;3.00;0.67;;;;;15.36;58.29;101061.41;2091769;28;48306;-49
2021/10/06 00:42:18;;;;;;;;;1.00;0.00;;;;;15.35;58.13;101061.47;2091788;28;47424;-50
2021/10/06 00:43:18;;;;;;;;;2.00;1.00;;;;;15.34;57.98;101063.28;2091752;28;47581;-48
2021/10/06 00:44:21;;;;;;;;;0.33;0.00;;;;;15.33;57.89;101056.19;2091996;28;45247;-49
2021/10/06 00:45:21;;;;;;;;;0.75;0.75;;;;;15.32;58.28;101055.31;2092075;28;47568;-48
2021/10/06 00:46:22;;;;;;;;;2.67;2.33;;;;;15.32;58.35;101062.47;2091812;28;46174;-49
2021/10/06 00:47:22;;;;;;;;;0.67;0.33;;;;;15.31;58.21;101066.06;2091931;28;48054;-53
2021/10/06 00:48:23;;;;;;;;;0.67;0.67;;;;;15.31;58.37;101066.06;2091260;28;48218;-49
2021/10/06 00:49:23;;;;;;;;;1.00;1.00;;;;;15.31;58.42;101069.63;2091177;28;48126;-50
2021/10/06 00:50:24;;;;;;;;;0.00;0.00;;;;;15.32;58.29;101070.50;2091837;28;47496;-48
2021/10/06 00:51:24;;;;;;;;;0.00;0.00;;;;;15.31;57.89;101069.63;2091172;28;47301;-51
2021/10/06 00:52:25;;;;;;;;;1.00;0.33;;;;;15.32;57.97;101062.47;2091190;28;46268;-51
2021/10/06 00:53:26;;;;;;;;;0.67;0.67;;;;;15.31;58.13;101063.41;2091827;28;47299;-50
2021/10/06 00:54:27;;;;;;;;;0.75;0.75;;;;;15.30;58.33;101067.88;2091240;28;45596;-49
2021/10/06 00:55:27;;;;;;;;;0.33;0.33;;;;;15.28;58.37;101064.38;2091290;28;47292;-51
2021/10/06 00:56:28;;;;;;;;;0.67;0.00;;;;;15.28;58.40;101066.19;2091648;28;47294;-49
2021/10/06 00:57:28;;;;;;;;;0.00;0.00;;;;;15.26;58.24;101065.38;2091864;28;46995;-52
2021/10/06 00:58:29;;;;;;;;;1.00;1.00;;;;;15.26;58.47;101060.03;2091852;28;45313;-49
2021/10/06 00:59:29;;;;;;;;;1.00;1.00;;;;;15.26;58.24;101074.25;2091959;28;46269;-50
2021/10/06 01:00:30;;;;;;;;;1.67;1.67;;;;;15.25;58.27;101066.31;2091781;28;48374;-51
2021/10/06 01:01:31;;;;;;;;;1.33;1.00;;;;;15.26;58.13;101068.06;2091180;28;48065;-51
2021/10/06 01:02:31;;;;;;;;;0.33;0.33;;;;;15.26;58.56;101065.38;2091229;28;47319;-51
2021/10/06 01:03:32;;;;;;;;;1.00;1.00;;;;;15.26;58.14;101063.56;2099401;28;46260;-48
2021/10/06 01:04:33;;;;;;;;;0.67;0.67;;;;;15.27;58.67;101072.47;2092031;28;46328;-51
2021/10/06 01:05:36;;;;;;;;;0.75;0.75;;;;;15.27;58.58;101073.34;2091503;28;48350;-52
2021/10/06 01:06:37;;;;;;;;;1.75;1.75;;;;;15.26;58.24;101071.59;2091882;28;48430;-48
2021/10/06 01:07:39;;;;;;;;;1.00;0.75;;;;;15.28;58.06;101074.22;2091094;28;47092;-52
2021/10/06 01:08:40;;;;;;;;;0.25;0.25;;;;;15.26;58.19;101079.63;2083011;28;47633;-54
2021/10/06 01:09:41;;;;;;;;;0.00;0.00;;;;;15.25;58.56;101068.97;2091059;28;47474;-50
2021/10/06 01:10:42;;;;;;;;;1.67;1.33;;;;;15.25;58.50;101074.31;2091961;28;48361;-49
2021/10/06 01:11:43;;;;;;;;;0.50;0.00;;;;;15.23;58.16;101079.69;2091162;28;46962;-49
2021/10/06 01:12:44;;;;;;;;;1.00;1.00;;;;;15.23;58.30;101068.13;2092078;28;47343;-51
2021/10/06 01:13:45;;;;;;;;;0.33;0.00;;;;;15.20;58.79;101071.78;2091643;28;47314;-51
2021/10/06 01:14:46;;;;;;;;;0.00;0.00;;;;;15.20;58.73;101070.91;2091275;28;48069;-50
2021/10/06 01:15:47;;;;;;;;;1.75;1.75;;;;;15.18;58.22;101068.31;2090864;28;48104;-51
2021/10/06 01:16:49;;;;;;;;;0.67;0.67;;;;;15.17;58.33;101068.38;2091398;28;45406;-49
2021/10/06 01:17:49;;;;;;;;;0.75;0.75;;;;;15.16;58.34;101071.97;2090859;28;47498;-49
2021/10/06 01:18:50;;;;;;;;;0.00;0.00;;;;;15.14;58.59;101066.69;2098063;28;47085;-52
2021/10/06 01:19:51;;;;;;;;;1.00;1.00;;;;;15.14;58.52;101081.84;2091869;27;47216;-50
2021/10/06 01:20:51;;;;;;;;;1.00;1.00;;;;;15.12;58.28;101067.63;2091934;28;48207;-49
2021/10/06 01:21:53;;;;;;;;;0.67;0.67;;;;;15.12;58.78;101078.31;2091520;28;48351;-50
2021/10/06 01:22:54;;;;;;;;;0.75;0.75;;;;;15.10;58.47;101073.03;2091869;28;45295;-50
2021/10/06 01:23:54;;;;;;;;;1.00;0.00;;;;;15.09;58.59;101075.75;2091682;28;46285;-49
2021/10/06 01:24:55;;;;;;;;;1.67;1.00;;;;;15.09;58.92;101073.09;2092072;28;46222;-50
2021/10/06 01:25:55;;;;;;;;;1.00;1.00;;;;;15.07;58.94;101080.28;2091545;28;47160;-49
2021/10/06 01:26:57;;;;;;;;;0.00;0.00;;;;;15.06;58.42;101079.41;2091097;28;47509;-50
2021/10/06 01:27:58;;;;;;;;;4.25;0.75;;;;;15.05;58.93;101084.81;2084494;28;48360;-50
2021/10/06 01:28:58;;;;;;;;;0.33;0.33;;;;;15.05;59.10;101087.50;2091959;28;48763;-51
2021/10/06 01:29:59;;;;;;;;;1.00;1.00;;;;;15.05;58.83;101091.03;2091563;28;48276;-48
2021/10/06 01:30:59;;;;;;;;;1.00;1.00;;;;;15.04;58.83;101091.97;2091234;28;47168;-50
2021/10/06 01:32:00;;;;;;;;;1.00;1.00;;;;;15.04;59.26;101091.97;2090968;28;46205;-49
2021/10/06 01:33:00;;;;;;;;;0.00;0.00;;;;;15.03;59.13;101087.56;2091347;28;47167;-53
2021/10/06 01:34:01;;;;;;;;;0.33;0.00;;;;;15.02;59.01;101081.34;2091576;28;48239;-48
2021/10/06 01:35:05;;;;;;;;;1.33;1.00;;;;;15.02;58.95;101085.81;2091758;28;46239;-50
2021/10/06 01:36:06;;;;;;;;;0.75;0.00;;;;;15.01;58.99;101084.94;2091639;28;48238;-50
2021/10/06 01:37:06;;;;;;;;;3.00;1.67;;;;;15.00;58.97;101093.88;2091546;28;47180;-48
2021/10/06 01:38:07;;;;;;;;;2.00;1.00;;;;;15.00;59.31;101087.66;2091504;28;48296;-51
2021/10/06 01:39:08;;;;;;;;;0.33;0.33;;;;;15.01;58.66;101092.09;2091615;28;46139;-51
2021/10/06 01:40:13;;;;;;;;;0.50;0.50;;;;;15.00;59.14;101096.56;2091625;28;47378;-48
2021/10/06 01:41:13;;;;;;;;;2.75;2.75;;;;;15.00;58.98;101088.53;2082636;28;47266;-48
2021/10/06 01:42:14;;;;;;;;;1.00;1.00;;;;;15.01;59.16;101089.41;2082537;28;47558;-51
2021/10/06 01:43:14;;;;;;;;;1.00;1.00;;;;;15.02;58.96;101084.00;2090765;28;47891;-49
2021/10/06 01:44:17;;;;;;;;;2.00;2.00;;;;;15.01;59.25;101094.75;2091829;28;47244;-50
2021/10/06 01:45:21;;;;;;;;;0.00;0.00;;;;;15.00;58.93;101098.34;2091477;28;48257;-50
2021/10/06 01:46:21;;;;;;;;;2.00;0.00;;;;;14.99;59.10;101092.13;2091564;28;45429;-48
2021/10/06 01:47:24;;;;;;;;;0.00;0.00;;;;;14.99;59.27;101096.59;2085370;28;47295;-51
2021/10/06 01:48:25;;;;;;;;;1.50;0.75;;;;;14.99;59.48;101101.94;2091917;28;46028;-50
2021/10/06 01:49:25;;;;;;;;;1.00;1.00;;;;;14.98;59.13;101103.72;2091521;28;45677;-50
2021/10/06 01:50:26;;;;;;;;;0.33;0.33;;;;;14.99;59.09;101099.25;2091664;28;47352;-50
2021/10/06 01:51:26;;;;;;;;;1.67;1.00;;;;;14.97;59.54;101106.44;2091283;28;47137;-49
2021/10/06 01:52:27;;;;;;;;;0.00;0.00;;;;;14.98;59.24;101111.75;2091796;28;46231;-51
2021/10/06 01:53:38;;;;;;;;;0.67;0.67;;;;;14.96;59.42;101102.91;2090602;28;48306;-51
2021/10/06 01:54:39;;;;;;;;;3.50;2.00;;;;;14.96;59.45;101112.72;2092621;28;47068;-54
2021/10/06 01:55:40;;;;;;;;;1.33;1.33;;;;;14.96;59.64;101104.72;2099165;28;47399;-49
2021/10/06 01:56:41;;;;;;;;;0.00;0.00;;;;;14.93;59.23;101097.66;2091365;28;48603;-51
2021/10/06 01:57:41;;;;;;;;;1.33;1.33;;;;;14.93;59.21;101092.31;2091208;28;48016;-50
2021/10/06 01:58:46;;;;;;;;;3.00;3.00;;;;;14.93;59.18;101094.13;2091713;28;46848;-51
2021/10/06 01:59:48;;;;;;;;;0.00;0.00;;;;;14.92;59.24;101097.72;2091351;28;47233;-52
2021/10/06 02:00:49;;;;;;;;;5.00;2.00;;;;;14.92;59.66;101098.59;2091538;28;47538;-51
2021/10/06 02:01:50;;;;;;;;;0.25;0.25;;;;;14.91;59.01;101098.66;2090576;28;48146;-47
2021/10/06 02:02:51;;;;;;;;;0.33;0.33;;;;;14.91;59.35;101098.66;2074497;28;47027;-50
2021/10/06 02:03:51;;;;;;;;;1.33;1.00;;;;;14.90;59.67;101103.13;2082378;28;47287;-47
2021/10/06 02:04:52;;;;;;;;;1.00;1.00;;;;;14.91;59.53;101106.69;2090898;28;47403;-48
2021/10/06 02:05:52;;;;;;;;;1.00;1.00;;;;;14.90;59.71;101105.81;2090603;28;47365;-50
2021/10/06 02:06:53;;;;;;;;;1.00;1.00;;;;;14.89;59.33;101112.06;2091454;28;46982;-51
2021/10/06 02:07:54;;;;;;;;;1.00;1.00;;;;;14.90;59.71;101103.13;2091387;28;45688;-47
2021/10/06 02:08:54;;;;;;;;;0.00;0.00;;;;;14.91;59.59;101101.34;2091582;28;48042;-48
2021/10/06 02:09:55;;;;;;;;;1.00;1.00;;;;;14.90;59.34;101110.28;2091063;28;47597;-49
2021/10/06 02:10:55;;;;;;;;;1.00;1.00;;;;;14.89;59.27;101103.19;2090384;28;47841;-50
2021/10/06 02:11:56;;;;;;;;;2.00;0.00;;;;;14.88;59.51;101110.31;2090449;28;45477;-50
2021/10/06 02:12:57;;;;;;;;;3.00;1.00;;;;;14.89;59.55;101111.19;2090730;28;48280;-49
2021/10/06 02:13:58;;;;;;;;;1.75;1.00;;;;;14.89;59.77;101104.06;2090558;28;48061;-48
2021/10/06 02:14:58;;;;;;;;;0.67;0.33;;;;;14.89;59.61;101105.84;2090728;28;47057;-50
2021/10/06 02:15:59;;;;;;;;;1.00;1.00;;;;;14.88;59.47;101101.44;2090322;28;48206;-51
2021/10/06 02:17:00;;;;;;;;;0.00;0.00;;;;;14.86;59.38;101098.78;2090173;28;48085;-50
2021/10/06 02:18:00;;;;;;;;;0.00;0.00;;;;;14.87;59.46;101110.38;2090130;28;47473;-48
2021/10/06 02:19:00;;;;;;;;;0.67;0.00;;;;;14.84;59.33;101106.00;2094373;28;48039;-50
2021/10/06 02:20:02;;;;;;;;;1.00;1.00;;;;;14.84;59.40;101107.78;2087161;28;47918;-51
2021/10/06 02:21:03;;;;;;;;;0.75;0.75;;;;;14.83;59.52;101108.72;2074931;28;47076;-49
2021/10/06 02:22:03;;;;;;;;;1.00;1.00;;;;;14.82;59.63;101106.97;2082256;28;45446;-48
2021/10/06 02:23:05;;;;;;;;;3.00;0.00;;;;;14.81;59.80;101102.56;2092075;28;46964;-49
2021/10/06 02:24:05;;;;;;;;;2.50;1.50;;;;;14.81;59.80;101105.22;2093133;28;47161;-48
2021/10/06 02:25:07;;;;;;;;;1.00;1.00;;;;;14.81;59.59;101107.91;2092802;28;47355;-49
2021/10/06 02:26:07;;;;;;;;;2.00;2.00;;;;;14.80;59.41;101112.38;2092889;28;47572;-48
2021/10/06 02:27:08;;;;;;;;;0.00;0.00;;;;;14.80;59.30;101111.50;2092093;28;47389;-49
2021/10/06 02:28:09;;;;;;;;;0.00;0.00;;;;;14.79;60.02;101113.28;2075790;28;45193;-49
2021/10/06 02:29:09;;;;;;;;;1.00;1.00;;;;;14.78;59.67;101103.53;2084019;28;47393;-50
2021/10/06 02:30:10;;;;;;;;;0.00;0.00;;;;;14.78;59.93;101111.56;2092961;28;46413;-51
2021/10/06 02:31:11;;;;;;;;;2.00;1.00;;;;;14.77;59.79;101107.13;2092698;28;47564;-48
2021/10/06 02:32:11;;;;;;;;;0.33;0.33;;;;;14.76;59.46;101108.06;2093219;28;48111;-51
2021/10/06 02:33:12;;;;;;;;;0.00;0.00;;;;;14.77;59.87;101107.13;2092776;28;45083;-48
2021/10/06 02:34:12;;;;;;;;;0.00;0.00;;;;;14.77;59.94;101117.81;2092439;28;47053;-48
2021/10/06 02:35:13;;;;;;;;;1.33;1.33;;;;;14.76;60.09;101107.19;2092089;28;47267;-48
2021/10/06 02:36:14;;;;;;;;;2.75;1.75;;;;;14.76;59.68;101112.53;2092902;28;46209;-49
2021/10/06 02:37:14;;;;;;;;;2.00;1.00;;;;;14.75;59.75;101113.47;2091987;28;45460;-51
2021/10/06 02:38:15;;;;;;;;;0.00;0.00;;;;;14.74;59.98;101109.91;2092233;28;47403;-52
2021/10/06 02:39:15;;;;;;;;;1.00;1.00;;;;;14.73;60.01;101105.47;2092604;28;47318;-50
2021/10/06 02:40:17;;;;;;;;;1.67;1.67;;;;;14.74;59.78;101112.59;2093040;28;47996;-48
2021/10/06 02:41:18;;;;;;;;;0.00;0.00;;;;;14.73;59.58;101113.47;2092359;28;47365;-48
2021/10/06 02:42:18;;;;;;;;;2.00;1.00;;;;;14.72;59.86;101120.63;2092966;28;48243;-52
2021/10/06 02:43:19;;;;;;;;;0.00;0.00;;;;;14.71;59.76;101112.66;2091969;28;46296;-46
2021/10/06 02:44:19;;;;;;;;;1.33;1.33;;;;;14.70;60.11;101116.25;2083881;28;48308;-48
2021/10/06 02:45:21;;;;;;;;;0.00;0.00;;;;;14.70;60.03;101116.25;2091923;28;48123;-48
2021/10/06 02:46:21;;;;;;;;;0.00;0.00;;;;;14.70;60.08;101129.63;2092791;28;46888;-49
2021/10/06 02:47:22;;;;;;;;;0.67;0.67;;;;;14.67;59.81;101125.25;2091944;28;45166;-50
2021/10/06 02:48:23;;;;;;;;;1.00;1.00;;;;;14.67;59.83;101125.25;2084091;28;47741;-48
2021/10/06 02:49:24;;;;;;;;;0.00;0.00;;;;;14.69;59.78;101122.53;2091808;28;47393;-50
2021/10/06 02:50:25;;;;;;;;;0.00;0.00;;;;;14.68;59.75;101124.31;2092866;28;47245;-49
2021/10/06 02:51:25;;;;;;;;;1.25;0.00;;;;;14.67;59.66;101122.56;2089710;28;45223;-56
2021/10/06 02:52:26;;;;;;;;;1.00;1.00;;;;;14.67;60.13;101133.25;2089164;28;47054;-50
2021/10/06 02:53:26;;;;;;;;;0.00;0.00;;;;;14.67;59.69;101127.03;2091995;28;48306;-52
2021/10/06 02:54:27;;;;;;;;;1.00;1.00;;;;;14.67;60.20;101133.25;2092841;28;47165;-50
2021/10/06 02:55:28;;;;;;;;;1.00;1.00;;;;;14.66;60.07;101131.53;2092500;28;45310;-49
2021/10/06 02:56:29;;;;;;;;;1.00;1.00;;;;;14.67;60.09;101140.41;2092607;28;47125;-51
2021/10/06 02:57:29;;;;;;;;;2.33;1.33;;;;;14.66;59.91;101136.00;2092331;28;47309;-51
2021/10/06 02:58:30;;;;;;;;;1.33;1.00;;;;;14.66;60.13;101136.00;2092819;28;48053;-49
2021/10/06 02:59:31;;;;;;;;;2.00;2.00;;;;;14.66;60.17;101144.88;2092236;28;48158;-50
2021/10/06 03:00:31;;;;;;;;;1.00;1.00;;;;;14.66;60.13;101141.34;2092626;28;47333;-51
2021/10/06 03:01:32;;;;;;;;;0.67;0.67;;;;;14.65;60.00;101144.94;2092636;28;45679;-51
2021/10/06 03:02:33;;;;;;;;;1.67;1.00;;;;;14.65;60.28;101144.94;2092597;28;47707;-50
2021/10/06 03:03:34;;;;;;;;;2.00;1.00;;;;;14.65;60.20;101145.81;2092558;28;47471;-50
2021/10/06 03:04:34;;;;;;;;;0.00;0.00;;;;;14.64;60.41;101148.53;2092627;28;47399;-50
2021/10/06 03:05:35;;;;;;;;;2.00;2.00;;;;;14.64;60.37;101141.38;2092327;28;47335;-49
2021/10/06 03:06:35;;;;;;;;;0.67;0.67;;;;;14.64;60.11;101148.53;2092474;28;47325;-52
2021/10/06 03:07:36;;;;;;;;;0.00;0.00;;;;;14.63;60.14;101144.97;2092499;27;47104;-52
2021/10/06 03:08:37;;;;;;;;;2.33;1.00;;;;;14.63;60.39;101144.97;2092472;28;48061;-50
2021/10/06 03:09:37;;;;;;;;;0.33;0.33;;;;;14.62;60.36;101148.56;2092363;28;47267;-51
2021/10/06 03:10:38;;;;;;;;;1.00;1.00;;;;;14.62;59.90;101156.59;2092652;28;47045;-48
2021/10/06 03:11:38;;;;;;;;;0.00;0.00;;;;;14.60;60.06;101147.72;2092416;28;47497;-48
2021/10/06 03:12:39;;;;;;;;;1.00;1.00;;;;;14.61;60.17;101151.25;2092525;28;48328;-51
2021/10/06 03:13:40;;;;;;;;;2.00;1.00;;;;;14.61;60.22;101144.16;2092584;28;47203;-51
2021/10/06 03:14:40;;;;;;;;;0.00;0.00;;;;;14.62;60.55;101148.56;2092122;28;47598;-52
2021/10/06 03:15:42;;;;;;;;;1.00;1.00;;;;;14.62;60.20;101153.03;2091795;28;47443;-50
2021/10/06 03:16:43;;;;;;;;;2.25;0.25;;;;;14.62;60.43;101153.03;2092624;28;47287;-48
2021/10/06 03:17:43;;;;;;;;;1.00;1.00;;;;;14.62;60.41;101161.06;2091719;28;47245;-51
2021/10/06 03:18:44;;;;;;;;;1.00;1.00;;;;;14.62;60.40;101155.72;2096148;27;47141;-52
2021/10/06 03:19:44;;;;;;;;;1.00;1.00;;;;;14.61;60.64;101151.25;2100839;27;48864;-50
2021/10/06 03:20:45;;;;;;;;;0.33;0.33;;;;;14.61;60.40;101151.25;2095189;27;46841;-51
2021/10/06 03:21:45;;;;;;;;;1.00;1.00;;;;;14.61;60.56;101154.84;2092143;28;47208;-49
2021/10/06 03:22:46;;;;;;;;;3.67;1.00;;;;;14.61;60.22;101161.94;2092409;28;47107;-51
2021/10/06 03:23:46;;;;;;;;;1.33;1.33;;;;;14.61;60.44;101156.59;2092231;28;47236;-48
2021/10/06 03:24:47;;;;;;;;;1.00;1.00;;;;;14.60;60.41;101160.19;2092510;28;46189;-48
2021/10/06 03:25:48;;;;;;;;;2.33;1.00;;;;;14.58;60.43;101154.91;2092386;28;47018;-48
2021/10/06 03:26:48;;;;;;;;;1.00;1.00;;;;;14.59;60.49;101156.66;2092327;28;45488;-47
2021/10/06 03:27:49;;;;;;;;;2.00;2.00;;;;;14.59;60.50;101155.78;2092006;28;47075;-51
2021/10/06 03:28:49;;;;;;;;;0.33;0.33;;;;;14.58;60.41;101157.59;2092401;28;47065;-47
2021/10/06 03:29:50;;;;;;;;;1.00;1.00;;;;;14.59;60.41;101159.34;2088002;28;46191;-48
2021/10/06 03:30:50;;;;;;;;;1.00;1.00;;;;;14.58;60.32;101156.72;2092707;28;47215;-52
2021/10/06 03:31:51;;;;;;;;;3.00;1.33;;;;;14.57;60.68;101155.84;2092276;28;47853;-51
2021/10/06 03:32:51;;;;;;;;;0.00;0.00;;;;;14.57;60.53;101155.84;2092666;28;46914;-50
2021/10/06 03:33:52;;;;;;;;;0.33;0.33;;;;;14.58;60.35;101162.06;2091060;28;46285;-50
2021/10/06 03:34:52;;;;;;;;;0.00;0.00;;;;;14.57;60.51;101158.50;2091100;28;47007;-49
2021/10/06 03:35:53;;;;;;;;;0.00;0.00;;;;;14.57;60.73;101162.97;2100162;28;45212;-51
2021/10/06 03:36:53;;;;;;;;;2.00;2.00;;;;;14.57;60.65;101160.31;2100244;28;46924;-48
2021/10/06 03:37:55;;;;;;;;;1.00;1.00;;;;;14.56;60.38;101159.44;2092166;28;48086;-52
2021/10/06 03:38:56;;;;;;;;;1.00;1.00;;;;;14.56;60.77;101159.44;2092256;28;46582;-53
2021/10/06 03:39:56;;;;;;;;;1.00;1.00;;;;;14.56;60.86;101170.13;2092030;28;47255;-52
2021/10/06 03:40:57;;;;;;;;;1.67;1.67;;;;;14.56;60.76;101174.59;2092443;28;47557;-49
2021/10/06 03:41:58;;;;;;;;;1.67;1.00;;;;;14.55;60.61;101173.72;2092098;28;47306;-50
2021/10/06 03:42:58;;;;;;;;;0.33;0.33;;;;;14.54;60.43;101171.97;2091674;28;47003;-53
2021/10/06 03:43:59;;;;;;;;;1.00;0.00;;;;;14.54;61.05;101171.97;2091588;28;47385;-48
2021/10/06 03:44:59;;;;;;;;;0.00;0.00;;;;;14.54;60.58;101179.09;2092489;28;47286;-50
2021/10/06 03:46:00;;;;;;;;;1.00;1.00;;;;;14.54;60.68;101177.31;2091793;28;47244;-52
2021/10/06 03:47:01;;;;;;;;;1.50;1.50;;;;;14.55;60.52;101178.19;2092574;28;47284;-52
2021/10/06 03:48:01;;;;;;;;;2.33;2.33;;;;;14.53;60.76;101177.34;2092019;28;47892;-51
2021/10/06 03:49:02;;;;;;;;;0.00;0.00;;;;;14.54;60.92;101177.31;2092535;28;47364;-50
2021/10/06 03:50:04;;;;;;;;;1.00;1.00;;;;;14.55;60.54;101180.84;2092254;28;47105;-49
2021/10/06 03:51:05;;;;;;;;;1.00;1.00;;;;;14.54;60.81;101184.44;2092171;28;47233;-52
2021/10/06 03:52:05;;;;;;;;;1.00;1.00;;;;;14.53;60.39;101186.25;2092189;28;47209;-51
2021/10/06 03:53:06;;;;;;;;;3.33;2.00;;;;;14.54;60.99;101189.78;2092233;28;46992;-52
2021/10/06 03:54:07;;;;;;;;;2.00;1.00;;;;;14.54;60.83;101187.13;2092019;28;46966;-52
2021/10/06 03:55:09;;;;;;;;;0.00;0.00;;;;;14.54;60.56;101187.13;2092298;28;47215;-51
2021/10/06 03:56:10;;;;;;;;;1.50;1.50;;;;;14.54;60.83;101187.13;2091420;28;47145;-49
2021/10/06 03:57:10;;;;;;;;;0.33;0.33;;;;;14.51;60.60;101182.75;2091445;28;47219;-48
2021/10/06 03:58:12;;;;;;;;;1.33;1.00;;;;;14.52;60.71;101197.84;2092283;28;47962;-50
2021/10/06 03:59:12;;;;;;;;;1.00;0.00;;;;;14.52;60.65;101186.28;2091580;28;46042;-47
2021/10/06 04:00:13;;;;;;;;;6.00;1.00;;;;;14.51;60.79;101190.75;2091468;28;47953;-48
2021/10/06 04:01:14;;;;;;;;;0.00;0.00;;;;;14.51;60.85;101188.09;2092449;28;47630;-49
2021/10/06 04:02:14;;;;;;;;;1.00;1.00;;;;;14.51;60.70;101189.88;2091639;28;46145;-48
2021/10/06 04:03:15;;;;;;;;;1.00;1.00;;;;;14.50;60.70;101197.03;2091456;28;45249;-49
2021/10/06 04:04:15;;;;;;;;;2.00;0.00;;;;;14.50;60.98;101201.50;2092413;28;47190;-51
2021/10/06 04:05:16;;;;;;;;;0.67;0.67;;;;;14.50;60.70;101205.03;2091374;28;47100;-48
2021/10/06 04:06:16;;;;;;;;;1.00;1.00;;;;;14.50;60.83;101198.81;2091785;28;45533;-52
2021/10/06 04:07:17;;;;;;;;;0.00;0.00;;;;;14.50;60.53;101205.03;2091995;28;48067;-52
2021/10/06 04:08:20;;;;;;;;;1.67;1.67;;;;;14.51;61.00;101206.78;2092216;28;47367;-50
2021/10/06 04:09:20;;;;;;;;;0.00;0.00;;;;;14.50;60.58;101207.72;2091903;28;47433;-47
2021/10/06 04:10:21;;;;;;;;;1.33;1.00;;;;;14.52;60.59;101207.66;2092368;28;48514;-50
2021/10/06 04:11:21;;;;;;;;;0.67;0.67;;;;;14.52;60.93;101210.34;2091840;28;48057;-48
2021/10/06 04:12:22;;;;;;;;;0.33;0.33;;;;;14.51;61.01;101211.25;2086291;28;47255;-50
2021/10/06 04:13:22;;;;;;;;;2.00;2.00;;;;;14.50;60.66;101220.19;2091277;28;47221;-48
2021/10/06 04:14:23;;;;;;;;;3.67;1.00;;;;;14.49;60.76;101215.78;2074921;28;46958;-50
2021/10/06 04:15:23;;;;;;;;;2.00;1.00;;;;;14.48;60.85;101219.34;2067182;28;45438;-48
2021/10/06 04:16:24;;;;;;;;;1.00;1.00;;;;;14.48;60.63;101217.53;2075073;28;47281;-51
2021/10/06 04:17:25;;;;;;;;;3.00;2.00;;;;;14.48;60.87;101214.88;2091074;28;48345;-48
2021/10/06 04:18:25;;;;;;;;;1.00;1.00;;;;;14.48;60.82;101206.84;2094744;28;48574;-48
2021/10/06 04:19:26;;;;;;;;;0.67;0.67;;;;;14.48;60.67;101209.53;2100178;27;48225;-51
2021/10/06 04:20:26;;;;;;;;;2.00;1.00;;;;;14.48;60.95;101212.19;2092304;28;45344;-49
2021/10/06 04:21:27;;;;;;;;;1.00;1.00;;;;;14.48;60.58;101208.66;2091776;28;47712;-47
2021/10/06 04:22:28;;;;;;;;;1.00;1.00;;;;;14.48;60.67;101212.19;2092388;28;47690;-49
2021/10/06 04:23:28;;;;;;;;;0.00;0.00;;;;;14.48;60.83;101211.31;2091760;28;48478;-52
2021/10/06 04:24:29;;;;;;;;;0.00;0.00;;;;;14.47;60.95;101206.91;2092116;28;48813;-50
2021/10/06 04:25:29;;;;;;;;;0.00;0.00;;;;;14.47;60.81;101214.91;2091157;28;46966;-49
2021/10/06 04:26:30;;;;;;;;;0.67;0.67;;;;;14.46;60.78;101214.03;2091548;28;45293;-53
2021/10/06 04:27:30;;;;;;;;;2.33;0.67;;;;;14.46;60.98;101211.38;2091807;28;47348;-51
2021/10/06 04:28:31;;;;;;;;;2.00;1.00;;;;;14.45;60.95;101206.94;2091674;28;47797;-50
2021/10/06 04:29:32;;;;;;;;;1.00;1.00;;;;;14.46;60.82;101207.81;2090901;28;48452;-52
2021/10/06 04:30:32;;;;;;;;;1.00;1.00;;;;;14.45;60.73;101212.28;2091814;28;47286;-48
2021/10/06 04:31:33;;;;;;;;;1.00;1.00;;;;;14.45;60.92;101206.09;2091251;28;47369;-50
2021/10/06 04:32:33;;;;;;;;;2.67;2.00;;;;;14.46;60.60;101213.16;2092136;28;46249;-51
2021/10/06 04:33:34;;;;;;;;;1.00;1.00;;;;;14.44;60.94;101199.88;2091369;28;48357;-50
2021/10/06 04:34:34;;;;;;;;;1.33;1.33;;;;;14.44;60.75;101207.88;2091334;28;46585;-50
2021/10/06 04:35:35;;;;;;;;;1.67;1.00;;;;;14.42;60.71;101205.22;2091988;28;47378;-48
2021/10/06 04:36:35;;;;;;;;;0.67;0.67;;;;;14.42;60.65;101205.22;2091811;28;46940;-48
2021/10/06 04:37:36;;;;;;;;;1.00;1.00;;;;;14.41;61.02;101208.81;2091784;28;47213;-47
2021/10/06 04:38:36;;;;;;;;;0.33;0.33;;;;;14.41;60.90;101211.50;2091877;28;48334;-47
2021/10/06 04:39:37;;;;;;;;;0.67;0.67;;;;;14.40;60.74;101211.53;2091154;28;47307;-50
2021/10/06 04:40:38;;;;;;;;;1.33;1.33;;;;;14.41;60.87;101213.28;2091091;28;48234;-49
2021/10/06 04:41:40;;;;;;;;;0.00;0.00;;;;;14.41;61.09;101205.28;2091768;28;48178;-51
2021/10/06 04:42:42;;;;;;;;;1.75;1.75;;;;;14.40;61.05;101209.75;2091862;28;48270;-48